Time;durP1;ratioP1;P1;durP2;ratioP2;P2;SDS_P1;SDS_P2;PMS_P1;PMS_P2;Temp;Humidity;BMP_temperature;BMP_pressure;BME280_temperature;BME280_humidity;BME280_pressure;Samples;Min_cycle;Max_cycle;Signal;HPM_P1;HPM_P2
2021/07/31 00:01:02;;;;;;;5.18;1.58;;;;;;;20.33;50.51;100444.28;4929207;28;124479;-68
2021/07/31 00:03:30;;;;;;;4.40;1.50;;;;;;;20.35;50.62;100449.53;4930338;28;122919;-69
2021/07/31 00:05:58;;;;;;;3.33;1.52;;;;;;;20.34;50.44;100437.94;4931022;28;114434;-68
2021/07/31 00:08:26;;;;;;;4.03;1.38;;;;;;;20.33;50.41;100436.22;4926249;28;114439;-68
2021/07/31 00:10:53;;;;;;;5.53;1.58;;;;;;;20.32;50.65;100445.28;4928900;28;124156;-69
2021/07/31 00:13:21;;;;;;;4.80;1.42;;;;;;;20.31;50.48;100448.13;4930203;28;123815;-68
2021/07/31 00:15:50;;;;;;;3.17;1.40;;;;;;;20.29;50.71;100434.81;4930303;28;114189;-68
2021/07/31 00:18:18;;;;;;;5.20;1.48;;;;;;;20.29;50.74;100440.19;4926646;28;113843;-68
2021/07/31 00:20:45;;;;;;;4.18;1.40;;;;;;;20.29;50.70;100456.34;4928612;28;124867;-68
2021/07/31 00:23:12;;;;;;;4.20;1.33;;;;;;;20.26;50.63;100445.84;4944967;28;123482;-68
2021/07/31 00:25:40;;;;;;;4.63;1.30;;;;;;;20.25;50.66;100449.53;4930124;28;114549;-68
2021/07/31 00:28:07;;;;;;;5.50;1.65;;;;;;;20.24;50.93;100442.44;4929258;28;114151;-68
2021/07/31 00:30:36;;;;;;;5.25;1.60;;;;;;;20.22;50.90;100431.81;4930635;28;124967;-68
2021/07/31 00:33:03;;;;;;;6.35;1.65;;;;;;;20.22;50.84;100441.75;4931230;28;124036;-68
2021/07/31 00:35:32;;;;;;;5.10;1.65;;;;;;;20.21;51.07;100437.34;4928921;28;116698;-68
2021/07/31 00:37:59;;;;;;;2.58;1.38;;;;;;;20.20;51.14;100446.41;4929877;28;115149;-68
2021/07/31 00:40:27;;;;;;;4.35;1.60;;;;;;;20.18;51.20;100449.25;4928677;28;124397;-68
2021/07/31 00:43:06;;;;;;;14.63;1.70;;;;;;;20.17;51.41;100441.31;4930106;28;124634;-68
2021/07/31 00:45:34;;;;;;;4.72;1.52;;;;;;;20.18;51.40;100437.66;4929942;28;114979;-69
2021/07/31 00:48:04;;;;;;;5.85;1.80;;;;;;;20.18;51.62;100425.03;4928721;28;114198;-68
2021/07/31 00:50:33;;;;;;;7.32;2.08;;;;;;;20.19;51.61;100428.56;4945614;28;123204;-69
2021/07/31 00:53:00;;;;;;;4.65;1.73;;;;;;;20.20;51.46;100435.66;4930045;28;124013;-68
2021/07/31 00:55:29;;;;;;;3.55;1.60;;;;;;;20.20;51.54;100427.59;4942867;28;114023;-68
2021/07/31 00:57:58;;;;;;;5.88;1.73;;;;;;;20.22;51.75;100444.44;4927652;28;113234;-68
2021/07/31 01:00:32;;;;;;;4.38;1.70;;;;;;;20.23;51.70;100435.38;4940440;28;127222;-68
2021/07/31 01:03:01;;;;;;;6.85;1.83;;;;;;;20.25;51.65;100430.72;4924737;28;124135;-68
2021/07/31 01:05:29;;;;;;;5.32;1.63;;;;;;;20.26;51.81;100424.31;4929508;28;114315;-68
2021/07/31 01:07:56;;;;;;;4.60;1.55;;;;;;;20.27;51.87;100433.25;4928843;28;114355;-68
2021/07/31 01:10:24;;;;;;;5.97;1.85;;;;;;;20.27;51.91;100426.03;4928285;28;124207;-68
2021/07/31 01:12:54;;;;;;;4.03;1.50;;;;;;;20.30;51.84;100436.50;4936501;28;124377;-68
2021/07/31 01:15:21;;;;;;;5.70;1.73;;;;;;;20.32;51.89;100439.88;4929069;28;114337;-68
2021/07/31 01:17:49;;;;;;;5.53;1.70;;;;;;;20.35;51.80;100433.41;4928427;28;114247;-68
2021/07/31 01:20:16;;;;;;;4.75;2.00;;;;;;;20.36;51.79;100433.25;4946781;28;123210;-68
2021/07/31 01:22:52;;;;;;;6.35;1.88;;;;;;;20.38;51.92;100433.09;4939381;28;123127;-68
2021/07/31 01:25:20;;;;;;;6.82;1.83;;;;;;;20.40;51.93;100445.44;4931740;28;115434;-68
2021/07/31 01:27:48;;;;;;;5.15;1.95;;;;;;;20.40;51.91;100431.97;4933259;28;114129;-68
2021/07/31 01:30:16;;;;;;;4.25;1.58;;;;;;;20.40;51.87;100426.59;4932811;28;124481;-68
2021/07/31 01:32:45;;;;;;;6.68;2.00;;;;;;;20.41;51.66;100427.44;4946706;28;122622;-68
2021/07/31 01:35:12;;;;;;;6.53;2.15;;;;;;;20.40;51.72;100426.59;4932965;28;114240;-68
2021/07/31 01:37:40;;;;;;;5.10;1.80;;;;;;;20.39;51.75;100430.25;4931370;28;114174;-68
2021/07/31 01:40:08;;;;;;;5.00;2.30;;;;;;;20.36;51.76;100425.19;4947540;23;124055;-69
2021/07/31 01:42:36;;;;;;;4.72;1.45;;;;;;;20.35;51.77;100423.47;4918128;28;124641;-70
2021/07/31 01:45:04;;;;;;;4.28;1.80;;;;;;;20.33;51.72;100430.84;4927204;28;113670;-67
2021/07/31 01:47:33;;;;;;;5.68;1.90;;;;;;;20.32;51.72;100434.50;4924960;28;114106;-68
2021/07/31 01:50:04;;;;;;;6.07;2.00;;;;;;;20.29;51.91;100429.44;4931365;28;123174;-69
2021/07/31 01:52:39;;;;;;;5.35;1.80;;;;;;;20.27;51.85;100431.41;4932256;28;128031;-68
2021/07/31 01:55:07;;;;;;;4.40;1.70;;;;;;;20.26;52.20;100429.72;4914452;28;114525;-68
2021/07/31 01:57:35;;;;;;;4.78;1.95;;;;;;;20.25;51.76;100425.34;4927120;28;112877;-68
2021/07/31 02:00:23;;;;;;;5.85;1.70;;;;;;;20.25;51.75;100425.34;4924513;28;124066;-68
2021/07/31 02:03:02;;;;;;;5.65;1.80;;;;;;;20.25;51.83;100430.72;4945269;28;123341;-68
2021/07/31 02:05:36;;;;;;;3.60;1.60;;;;;;;20.25;51.87;100417.28;4927616;28;114490;-68
2021/07/31 02:08:05;;;;;;;5.90;2.00;;;;;;;20.26;51.80;100424.31;4920975;28;114353;-68
2021/07/31 02:10:46;;;;;;;6.18;1.70;;;;;;;20.26;52.06;100432.41;4940819;28;123557;-67
2021/07/31 02:13:13;;;;;;;5.65;1.90;;;;;;;20.26;52.13;100429.72;4925633;28;124383;-67
2021/07/31 02:15:45;;;;;;;5.78;1.90;;;;;;;20.29;52.23;100424.06;4918235;28;115263;-67
2021/07/31 02:18:17;;;;;;;6.90;1.80;;;;;;;20.29;51.91;100423.22;4908596;28;113947;-67
2021/07/31 02:20:47;;;;;;;6.10;1.55;;;;;;;20.30;52.17;100420.34;4929076;28;123252;-67
2021/07/31 02:23:30;;;;;;;5.88;1.83;;;;;;;20.31;51.90;100416.69;4926087;28;122898;-67
2021/07/31 02:26:24;;;;;;;4.90;1.67;;;;;;;20.33;52.12;100414.69;4919916;28;115280;-67
2021/07/31 02:29:00;;;;;;;6.18;1.83;;;;;;;20.34;52.00;100416.41;4920731;28;114245;-68
2021/07/31 02:31:34;;;;;;;4.55;1.73;;;;;;;20.33;52.18;100414.69;4927653;28;126692;-67
2021/07/31 02:34:02;;;;;;;3.35;1.67;;;;;;;20.32;52.05;100418.38;4925454;28;124188;-68
2021/07/31 02:36:31;;;;;;;7.47;2.42;;;;;;;20.32;52.24;100413.00;4913091;28;113240;-67
2021/07/31 02:39:04;;;;;;;6.50;1.60;;;;;;;20.32;52.27;100396.84;4922269;28;114081;-67
2021/07/31 02:41:31;;;;;;;7.43;2.10;;;;;;;20.33;52.28;100409.31;4925246;28;124292;-67
2021/07/31 02:44:01;;;;;;;5.05;1.60;;;;;;;20.33;52.31;100414.69;4918214;28;124128;-67
2021/07/31 02:46:28;;;;;;;3.95;1.90;;;;;;;20.31;52.33;100411.31;4924496;28;114352;-67
2021/07/31 02:48:57;;;;;;;5.85;1.80;;;;;;;20.31;52.18;100414.00;4918127;28;113958;-67
2021/07/31 02:51:25;;;;;;;7.45;2.28;;;;;;;20.31;52.27;100411.31;4917298;28;124384;-68
2021/07/31 02:54:01;;;;;;;6.15;1.80;;;;;;;20.30;52.44;100406.91;4925351;28;124494;-67
2021/07/31 02:56:31;;;;;;;8.13;1.98;;;;;;;20.31;52.31;100411.31;4931230;28;113407;-67
2021/07/31 02:59:00;;;;;;;5.18;1.95;;;;;;;20.31;52.25;100411.31;4932605;28;113143;-67
2021/07/31 03:01:27;;;;;;;5.50;2.08;;;;;;;20.32;52.47;100407.63;4928943;28;123771;-67
2021/07/31 03:03:55;;;;;;;5.85;2.10;;;;;;;20.33;52.34;100403.94;4923843;28;124281;-66
2021/07/31 03:06:23;;;;;;;4.10;1.65;;;;;;;20.33;52.32;100406.63;4930392;28;114589;-67
2021/07/31 03:08:51;;;;;;;6.95;2.10;;;;;;;20.34;52.39;100400.28;4926815;28;115300;-67
2021/07/31 03:11:18;;;;;;;3.13;1.83;;;;;;;20.33;52.47;100406.63;4928881;28;123200;-68
2021/07/31 03:13:46;;;;;;;5.53;2.03;;;;;;;20.34;52.47;100400.28;4942403;28;123981;-68
2021/07/31 03:16:15;;;;;;;5.43;2.42;;;;;;;20.34;52.31;100394.03;4921769;28;113447;-68
2021/07/31 03:18:45;;;;;;;7.70;2.55;;;;;;;20.32;52.45;100402.22;4940349;28;113038;-68
2021/07/31 03:21:14;;;;;;;6.70;2.17;;;;;;;20.32;52.49;100396.84;4930919;28;123655;-68
2021/07/31 03:24:02;;;;;;;3.92;2.08;;;;;;;20.33;52.47;100403.09;4923796;28;125689;-68
2021/07/31 03:26:29;;;;;;;5.68;2.03;;;;;;;20.30;52.50;100393.47;4923130;28;114492;-68
2021/07/31 03:28:58;;;;;;;4.15;1.92;;;;;;;20.30;52.42;100393.47;4925905;28;114122;-66
2021/07/31 03:31:27;;;;;;;7.53;2.33;;;;;;;20.31;52.58;100400.56;4915268;28;123538;-66
2021/07/31 03:33:57;;;;;;;5.85;2.05;;;;;;;20.30;52.34;100393.47;4924689;28;122992;-68
2021/07/31 03:36:26;;;;;;;6.07;2.25;;;;;;;20.30;52.43;100398.84;4920427;28;114614;-68
2021/07/31 03:39:04;;;;;;;5.75;2.10;;;;;;;20.29;52.58;100407.91;4928436;28;113650;-67
2021/07/31 03:41:41;;;;;;;6.78;1.98;;;;;;;20.30;52.45;100398.84;4921885;28;124288;-67
2021/07/31 03:44:09;;;;;;;5.82;2.00;;;;;;;20.30;52.43;100406.06;4941303;28;123160;-67
2021/07/31 03:46:44;;;;;;;4.65;2.00;;;;;;;20.27;52.51;100399.16;4917885;28;114544;-67
2021/07/31 03:49:14;;;;;;;3.72;1.98;;;;;;;20.23;52.84;100403.13;4928740;28;113356;-67
2021/07/31 03:51:44;;;;;;;4.88;2.10;;;;;;;20.20;52.91;100408.78;4925219;28;123323;-67
2021/07/31 03:54:12;;;;;;;8.48;2.45;;;;;;;20.15;52.96;100411.03;4921421;28;124287;-67
2021/07/31 03:56:39;;;;;;;5.78;2.40;;;;;;;20.11;53.09;100415.00;4925775;28;114274;-67
2021/07/31 03:59:16;;;;;;;4.88;2.40;;;;;;;20.08;53.19;100415.28;4928622;28;114039;-66
2021/07/31 04:01:44;;;;;;;5.05;2.03;;;;;;;20.05;53.38;100432.53;4920345;28;123255;-67
2021/07/31 04:04:12;;;;;;;4.43;2.40;;;;;;;20.03;53.80;100430.00;4923362;28;124847;-67
2021/07/31 04:06:41;;;;;;;4.40;2.28;;;;;;;20.00;53.56;100438.34;4923550;28;114561;-68
2021/07/31 04:09:40;;;;;;;4.43;2.28;;;;;;;19.91;53.71;100430.25;4900645;28;114412;-68
2021/07/31 04:12:26;;;;;;;5.35;2.78;;;;;;;19.82;54.00;100431.97;4917275;28;124963;-68
2021/07/31 04:15:12;;;;;;;;;;;;;;;19.76;53.48;100437.88;4919679;28;124760;-67
2021/07/31 04:17:41;;;;;;;6.07;2.38;;;;;;;19.73;53.83;100432.78;4923019;28;114144;-67
2021/07/31 04:20:09;;;;;;;7.18;2.60;;;;;;;19.68;54.00;100441.22;4926247;28;112971;-67
2021/07/31 04:22:36;;;;;;;4.53;2.50;;;;;;;19.63;54.33;100441.66;4921632;28;124374;-67
2021/07/31 04:25:03;;;;;;;6.40;2.80;;;;;;;19.61;54.36;100443.63;4925440;28;123030;-67
2021/07/31 04:27:32;;;;;;;5.15;2.47;;;;;;;19.60;54.71;100449.13;4927545;28;113198;-66
2021/07/31 04:30:00;;;;;;;5.68;2.78;;;;;;;19.60;54.63;100449.13;4914443;28;114325;-67
2021/07/31 04:32:28;;;;;;;6.93;2.50;;;;;;;19.59;54.69;100453.66;4927650;28;122735;-66
2021/07/31 04:34:55;;;;;;;4.68;2.47;;;;;;;19.58;54.91;100451.09;4913798;28;124122;-67
2021/07/31 04:37:22;;;;;;;4.90;2.60;;;;;;;19.57;54.82;100447.56;4924784;28;114468;-65
2021/07/31 04:39:49;;;;;;;5.90;2.45;;;;;;;19.57;54.76;100455.63;4917715;28;114396;-66
2021/07/31 04:42:17;;;;;;;4.25;2.90;;;;;;;19.57;54.92;100444.88;4921389;28;124136;-66
2021/07/31 04:44:44;;;;;;;5.95;2.58;;;;;;;19.59;55.13;100448.28;4912699;28;125150;-67
2021/07/31 04:47:11;;;;;;;4.47;2.50;;;;;;;19.59;55.03;100442.91;4925277;28;114384;-67
2021/07/31 04:49:38;;;;;;;6.30;2.65;;;;;;;19.59;54.96;100459.03;4940250;28;115502;-67
2021/07/31 04:52:09;;;;;;;7.53;2.90;;;;;;;19.59;55.15;100464.41;4925409;28;123727;-68
2021/07/31 04:54:40;;;;;;;4.82;2.60;;;;;;;19.58;55.18;100464.53;4930244;28;123062;-67
2021/07/31 04:57:09;;;;;;;6.47;2.67;;;;;;;19.58;55.26;100470.75;4919256;28;114423;-67
2021/07/31 04:59:36;;;;;;;5.40;2.60;;;;;;;19.57;55.14;100466.38;4925025;28;114282;-68
2021/07/31 05:02:04;;;;;;;6.53;2.90;;;;;;;19.57;55.18;100478.94;4922575;28;124417;-68
2021/07/31 05:04:31;;;;;;;6.13;2.80;;;;;;;19.56;55.37;100478.09;4916707;28;124748;-66
2021/07/31 05:06:59;;;;;;;6.22;2.92;;;;;;;19.56;55.33;100480.78;4917950;28;114655;-66
2021/07/31 05:09:26;;;;;;;6.45;3.00;;;;;;;19.56;55.42;100486.16;4945669;28;113063;-66
2021/07/31 05:11:53;;;;;;;5.68;2.95;;;;;;;19.56;55.54;100488.84;4925867;28;124133;-66
2021/07/31 05:14:21;;;;;;;5.47;2.80;;;;;;;19.57;55.54;100493.25;4925691;28;123703;-66
2021/07/31 05:16:48;;;;;;;3.20;2.42;;;;;;;19.57;55.73;100493.25;4923376;28;115807;-67
2021/07/31 05:19:15;;;;;;;6.10;3.00;;;;;;;19.56;55.91;100496.91;4923104;28;113984;-66
2021/07/31 05:21:43;;;;;;;8.50;3.40;;;;;;;19.57;55.82;100493.25;4924058;28;124354;-67
2021/07/31 05:24:12;;;;;;;3.70;3.03;;;;;;;19.58;56.10;100499.47;4925474;28;123914;-66
2021/07/31 05:26:40;;;;;;;8.50;3.30;;;;;;;19.61;55.96;100505.41;4930983;28;114655;-67
2021/07/31 05:29:07;;;;;;;6.43;3.10;;;;;;;19.63;55.88;100503.44;4947070;28;114059;-67
2021/07/31 05:31:35;;;;;;;4.18;3.00;;;;;;;19.69;56.11;100493.13;4922720;28;124357;-67
2021/07/31 05:34:02;;;;;;;5.72;3.17;;;;;;;19.71;56.09;100493.84;4940592;28;123957;-67
2021/07/31 05:36:34;;;;;;;6.15;3.05;;;;;;;19.74;56.23;100488.22;4920158;28;115263;-67
2021/07/31 05:39:03;;;;;;;5.75;3.30;;;;;;;19.77;56.30;100487.94;4922405;28;115366;-68
2021/07/31 05:41:30;;;;;;;9.00;3.45;;;;;;;19.80;56.09;100498.44;4925047;28;124626;-67
2021/07/31 05:43:57;;;;;;;6.82;3.45;;;;;;;19.82;56.04;100501.84;4922424;28;123772;-68
2021/07/31 05:46:25;;;;;;;5.43;3.38;;;;;;;19.84;56.29;100497.16;4943578;28;113153;-67
2021/07/31 05:48:52;;;;;;;6.85;3.05;;;;;;;19.89;56.15;100505.69;4920198;28;113980;-66
2021/07/31 05:51:20;;;;;;;7.85;3.20;;;;;;;19.93;56.31;100499.03;4927511;28;124673;-66
2021/07/31 05:53:47;;;;;;;5.13;3.20;;;;;;;19.98;56.18;100512.03;4919471;28;124057;-67
2021/07/31 05:56:15;;;;;;;6.40;3.28;;;;;;;20.03;56.06;100516.00;4930716;28;115061;-67
2021/07/31 05:58:43;;;;;;;6.90;3.17;;;;;;;20.07;56.03;100505.00;4921796;28;114106;-67
2021/07/31 06:01:11;;;;;;;6.22;3.38;;;;;;;20.11;56.01;100506.41;4920153;28;124088;-67
2021/07/31 06:03:38;;;;;;;4.97;3.40;;;;;;;20.15;56.08;100523.97;4919616;28;124207;-66
2021/07/31 06:06:06;;;;;;;6.32;3.47;;;;;;;20.18;55.80;100523.69;4931789;28;113551;-66
2021/07/31 06:08:33;;;;;;;5.18;3.15;;;;;;;20.18;55.60;100518.31;4926387;28;113805;-70
2021/07/31 06:11:05;;;;;;;9.57;3.53;;;;;;;20.19;55.81;100523.56;4929070;28;122666;-70
2021/07/31 06:13:33;;;;;;;6.93;4.03;;;;;;;20.21;55.71;100528.78;4928488;28;126727;-70
2021/07/31 06:16:06;;;;;;;8.88;4.00;;;;;;;20.18;55.63;100529.06;4921966;28;114967;-69
2021/07/31 06:18:34;;;;;;;5.93;3.65;;;;;;;20.21;55.67;100523.41;4929319;28;114268;-69
2021/07/31 06:21:01;;;;;;;6.70;4.05;;;;;;;20.25;55.96;100535.59;4921443;28;124431;-70
2021/07/31 06:23:28;;;;;;;6.35;3.90;;;;;;;20.26;55.75;100531.91;4930869;28;124815;-69
2021/07/31 06:26:00;;;;;;;8.32;4.38;;;;;;;20.27;55.94;100533.63;4941201;28;116721;-70
2021/07/31 06:28:27;;;;;;;6.28;4.10;;;;;;;20.27;56.00;100533.63;4923255;28;114778;-69
2021/07/31 06:30:54;;;;;;;6.28;3.83;;;;;;;20.29;55.80;100537.00;4922040;28;123964;-70
2021/07/31 06:33:21;;;;;;;7.60;4.03;;;;;;;20.29;56.01;100536.19;4921757;28;124256;-69
2021/07/31 06:35:48;;;;;;;11.38;4.38;;;;;;;20.26;55.88;100542.66;4923359;28;114594;-70
2021/07/31 06:38:16;;;;;;;7.25;4.53;;;;;;;20.23;56.15;100538.44;4919157;28;114079;-70
2021/07/31 06:40:43;;;;;;;8.43;4.78;;;;;;;20.20;56.14;100540.53;4924875;28;123685;-70
2021/07/31 06:43:10;;;;;;;7.13;4.43;;;;;;;20.17;56.26;100546.19;4922942;28;124074;-71
2021/07/31 06:45:39;;;;;;;7.65;4.88;;;;;;;20.14;56.42;100557.22;4923730;28;114535;-71
2021/07/31 06:48:06;;;;;;;9.95;5.00;;;;;;;20.09;56.58;100546.03;4930918;28;113830;-70
2021/07/31 06:50:33;;;;;;;7.82;4.93;;;;;;;20.03;56.53;100542.91;4921325;28;124068;-71
2021/07/31 06:53:01;;;;;;;8.68;4.95;;;;;;;20.01;56.85;100544.88;4945630;28;123978;-71
2021/07/31 06:55:28;;;;;;;7.72;4.55;;;;;;;20.02;57.04;100546.59;4922764;28;114665;-70
2021/07/31 06:57:55;;;;;;;9.32;4.82;;;;;;;20.03;57.22;100553.66;4925223;28;114410;-71
2021/07/31 07:00:22;;;;;;;9.48;4.93;;;;;;;20.03;57.09;100550.97;4937329;28;124206;-70
2021/07/31 07:02:49;;;;;;;8.65;5.00;;;;;;;20.01;57.20;100571.75;4922037;28;124172;-70
2021/07/31 07:05:17;;;;;;;10.07;5.70;;;;;;;19.97;57.08;100567.66;4919918;28;114192;-70
2021/07/31 07:07:44;;;;;;;6.72;4.90;;;;;;;19.93;57.36;100568.91;4920354;28;114080;-71
2021/07/31 07:10:12;;;;;;;8.90;5.38;;;;;;;19.90;57.40;100573.72;4915791;28;124847;-71
2021/07/31 07:12:39;;;;;;;8.68;5.30;;;;;;;19.86;57.57;100567.75;4919229;28;124546;-71
2021/07/31 07:15:06;;;;;;;7.30;5.63;;;;;;;19.84;57.48;100570.56;4921591;28;115726;-72
2021/07/31 07:17:33;;;;;;;7.90;5.38;;;;;;;19.82;57.46;100572.56;4919099;28;115272;-71
2021/07/31 07:20:01;;;;;;;9.20;5.40;;;;;;;19.80;57.63;100568.31;4930179;28;123182;-72
2021/07/31 07:22:28;;;;;;;9.98;5.60;;;;;;;19.78;57.82;100575.66;4923010;28;123400;-72
2021/07/31 07:24:55;;;;;;;8.57;5.45;;;;;;;19.78;57.82;100570.28;4925907;28;113446;-72
2021/07/31 07:27:22;;;;;;;7.55;5.18;;;;;;;19.75;57.81;100582.13;4922080;28;114639;-72
2021/07/31 07:29:50;;;;;;;10.52;5.13;;;;;;;19.75;58.04;100597.41;4918255;28;124383;-71
2021/07/31 07:32:18;;;;;;;7.28;5.00;;;;;;;19.73;58.05;100589.47;4920794;28;124650;-71
2021/07/31 07:34:45;;;;;;;6.68;4.70;;;;;;;19.74;58.13;100595.69;4918147;28;114808;-71
2021/07/31 07:37:12;;;;;;;7.40;4.88;;;;;;;19.74;58.09;100596.56;4922411;28;113441;-71
2021/07/31 07:39:40;;;;;;;9.25;5.15;;;;;;;19.76;58.29;100594.59;4918464;28;124343;-71
2021/07/31 07:42:07;;;;;;;6.97;4.90;;;;;;;19.80;58.40;100595.19;4922447;28;123918;-71
2021/07/31 07:44:35;;;;;;;5.47;4.70;;;;;;;19.82;58.34;100603.97;4935754;28;113216;-71
2021/07/31 07:47:02;;;;;;;8.35;5.05;;;;;;;19.82;58.42;100602.13;4922361;28;114391;-70
2021/07/31 07:49:30;;;;;;;7.72;4.63;;;;;;;19.83;58.45;100613.72;4928388;28;123335;-71
2021/07/31 07:51:57;;;;;;;8.05;5.10;;;;;;;19.83;58.45;100600.28;4920478;28;124340;-70
2021/07/31 07:54:29;;;;;;;6.95;4.93;;;;;;;19.86;58.60;100601.84;4922285;28;114353;-70
2021/07/31 07:56:57;;;;;;;6.45;4.65;;;;;;;19.89;58.73;100602.44;4937515;28;114844;-70
2021/07/31 07:59:25;;;;;;;7.60;4.97;;;;;;;19.94;58.81;100602.84;4930575;28;123749;-69
2021/07/31 08:01:52;;;;;;;7.88;5.13;;;;;;;19.98;58.68;100606.97;4914361;28;124714;-68
2021/07/31 08:04:21;;;;;;;8.13;4.55;;;;;;;20.02;58.74;100611.13;4942399;28;115877;-70
2021/07/31 08:06:48;;;;;;;6.80;5.15;;;;;;;20.06;58.61;100616.19;4926512;28;114920;-69
2021/07/31 08:09:16;;;;;;;8.60;5.05;;;;;;;20.09;58.77;100615.94;4921619;28;124110;-69
2021/07/31 08:11:43;;;;;;;9.35;5.00;;;;;;;20.12;58.63;100610.31;4937674;28;122869;-69
2021/07/31 08:14:11;;;;;;;8.23;4.75;;;;;;;20.14;58.60;100619.06;4928948;28;114277;-69
2021/07/31 08:16:38;;;;;;;9.13;5.07;;;;;;;20.17;58.75;100610.72;4923239;28;114251;-69
2021/07/31 08:19:09;;;;;;;9.30;4.97;;;;;;;20.23;59.04;100612.88;4930686;28;124083;-69
2021/07/31 08:21:37;;;;;;;7.07;5.78;;;;;;;20.35;59.21;100619.84;4922880;28;123161;-69
2021/07/31 08:24:07;;;;;;;7.07;5.13;;;;;;;20.47;59.04;100609.78;4930335;28;114399;-69
2021/07/31 08:26:34;;;;;;;6.45;5.20;;;;;;;20.61;59.18;100612.13;4930998;28;113552;-69
2021/07/31 08:29:01;;;;;;;8.60;5.72;;;;;;;20.76;59.04;100598.25;4916419;28;124202;-69
2021/07/31 08:31:28;;;;;;;5.90;4.75;;;;;;;20.94;58.76;100601.06;4935672;28;124311;-69
2021/07/31 08:33:55;;;;;;;7.57;5.10;;;;;;;21.10;58.83;100614.81;4921154;28;114290;-69
2021/07/31 08:36:22;;;;;;;5.78;4.60;;;;;;;21.28;58.35;100603.31;4936816;28;113657;-69
2021/07/31 08:38:51;;;;;;;7.72;5.07;;;;;;;21.46;58.49;100595.38;4934544;28;124194;-69
2021/07/31 08:41:20;;;;;;;5.13;4.63;;;;;;;21.62;58.14;100605.53;4931173;28;122677;-68
2021/07/31 08:43:47;;;;;;;6.45;4.90;;;;;;;21.74;57.66;100612.47;4928376;28;114778;-69
2021/07/31 08:46:16;;;;;;;5.97;4.40;;;;;;;21.87;57.41;100621.06;4925187;28;114116;-69
2021/07/31 08:48:44;;;;;;;5.63;3.92;;;;;;;21.97;56.76;100621.84;4927002;28;124267;-69
2021/07/31 08:51:15;;;;;;;5.55;4.25;;;;;;;22.02;55.98;100620.56;4927007;28;124467;-69
2021/07/31 08:53:43;;;;;;;6.75;3.92;;;;;;;22.04;55.78;100621.25;4933888;28;115220;-68
2021/07/31 08:56:10;;;;;;;6.07;3.90;;;;;;;22.07;55.48;100626.34;4928178;28;115194;-69
2021/07/31 08:58:42;;;;;;;6.15;3.80;;;;;;;22.11;55.35;100625.06;4934168;28;122905;-68
2021/07/31 09:01:13;;;;;;;;;;;;;;;22.11;55.53;100627.75;4934396;28;124294;-69
2021/07/31 09:03:48;;;;;;;6.15;3.38;;;;;;;22.15;55.16;100629.13;4935067;28;114854;-69
2021/07/31 09:06:25;;;;;;;;;;;;;;;22.17;55.29;100633.41;4934270;28;112849;-69
2021/07/31 09:08:53;;;;;;;4.75;2.80;;;;;;;22.23;54.81;100628.41;4935196;28;123378;-69
2021/07/31 09:11:20;;;;;;;7.57;3.38;;;;;;;22.24;54.83;100639.03;4932294;28;123837;-68
2021/07/31 09:13:47;;;;;;;5.25;3.22;;;;;;;22.25;54.67;100630.00;4933276;28;114583;-69
2021/07/31 09:16:15;;;;;;;4.43;3.15;;;;;;;22.26;54.37;100645.16;4924021;28;113794;-69
2021/07/31 09:18:45;;;;;;;5.28;3.30;;;;;;;22.25;54.29;100645.31;4924464;28;125019;-69
2021/07/31 09:21:14;;;;;;;4.10;2.85;;;;;;;22.26;54.34;100647.03;4924379;28;124530;-69
2021/07/31 09:24:00;;;;;;;4.60;3.10;;;;;;;22.22;54.23;100651.84;4931617;28;114373;-69
2021/07/31 09:26:36;;;;;;;6.20;3.28;;;;;;;22.22;53.93;100651.84;4929095;28;113247;-69
2021/07/31 09:29:11;;;;;;;4.22;2.85;;;;;;;22.20;53.94;100645.72;4932507;28;124204;-69
2021/07/31 09:31:44;;;;;;;3.80;3.15;;;;;;;22.18;53.77;100661.22;4930596;28;123142;-68
2021/07/31 09:34:35;;;;;;;3.80;2.90;;;;;;;22.18;53.83;100658.53;4933268;28;111803;-69
2021/07/31 09:37:28;;;;;;;5.15;3.40;;;;;;;22.24;54.05;100655.22;4920883;28;114649;-69
2021/07/31 09:39:59;;;;;;;5.68;3.08;;;;;;;22.35;54.10;100656.91;4932784;28;123281;-68
2021/07/31 09:42:37;;;;;;;5.15;3.00;;;;;;;22.47;53.93;100657.53;4916739;28;124951;-69
2021/07/31 09:45:09;;;;;;;4.40;3.10;;;;;;;22.58;53.66;100649.25;4924725;28;115313;-68
2021/07/31 09:47:39;;;;;;;4.75;3.15;;;;;;;22.67;53.24;100655.59;4931023;28;116020;-68
2021/07/31 09:50:07;;;;;;;4.40;3.50;;;;;;;22.72;53.23;100664.09;4945482;28;122767;-69
2021/07/31 09:52:34;;;;;;;4.30;3.22;;;;;;;22.78;53.02;100663.47;4929918;28;123880;-69
2021/07/31 09:55:02;;;;;;;5.43;3.38;;;;;;;22.80;52.72;100661.47;4926634;28;113918;-68
2021/07/31 09:57:30;;;;;;;5.05;3.65;;;;;;;22.83;52.52;100649.50;4927214;28;113935;-69
2021/07/31 10:00:00;;;;;;;3.67;3.08;;;;;;;22.86;52.60;100649.19;4938379;28;124337;-68
2021/07/31 10:02:28;;;;;;;5.40;3.85;;;;;;;22.91;52.41;100663.09;4916966;28;123978;-69
2021/07/31 10:04:56;;;;;;;4.93;3.70;;;;;;;22.93;51.87;100661.09;4921010;28;114410;-69
2021/07/31 10:07:25;;;;;;;5.32;3.60;;;;;;;22.91;51.79;100668.50;4917464;28;115351;-68
2021/07/31 10:09:53;;;;;;;4.07;3.30;;;;;;;22.88;51.75;100668.78;4931623;28;123009;-68
2021/07/31 10:12:30;;;;;;;4.72;3.70;;;;;;;22.81;51.67;100681.22;4927237;28;122981;-68
2021/07/31 10:14:57;;;;;;;4.63;3.50;;;;;;;22.74;51.60;100680.97;4914873;28;114838;-68
2021/07/31 10:17:27;;;;;;;6.72;4.10;;;;;;;22.66;51.46;100687.16;4942872;28;112881;-68
2021/07/31 10:19:56;;;;;;;5.28;4.50;;;;;;;22.57;51.61;100688.06;4921101;28;124375;-68
2021/07/31 10:22:42;;;;;;;4.38;3.70;;;;;;;22.46;51.80;100690.94;4923813;28;123981;-68
2021/07/31 10:25:16;;;;;;;6.32;4.18;;;;;;;22.42;52.14;100694.97;4921896;28;114385;-68
2021/07/31 10:27:45;;;;;;;6.38;4.75;;;;;;;22.44;52.57;100692.97;4917766;28;113695;-68
2021/07/31 10:30:35;;;;;;;6.53;4.40;;;;;;;22.49;52.65;100696.03;4920578;28;124928;-68
2021/07/31 10:33:02;;;;;;;6.53;4.45;;;;;;;22.60;52.75;100703.91;4926897;28;123978;-68
2021/07/31 10:35:37;;;;;;;10.15;4.90;;;;;;;22.73;52.74;100704.44;4945292;28;115264;-68
2021/07/31 10:38:07;;;;;;;6.43;3.92;;;;;;;22.90;52.92;100710.00;4931979;28;115524;-69
2021/07/31 10:40:40;;;;;;;7.05;4.97;;;;;;;23.06;52.80;100714.78;4947445;28;124912;-69
2021/07/31 10:43:11;;;;;;;6.03;5.18;;;;;;;23.22;52.76;100708.66;4930592;28;123695;-69
2021/07/31 10:45:39;;;;;;;5.70;5.15;;;;;;;23.36;52.62;100720.75;4924893;28;114632;-69
2021/07/31 10:48:22;;;;;;;5.95;5.30;;;;;;;23.49;52.58;100716.69;4920100;28;114163;-68
2021/07/31 10:50:50;;;;;;;8.90;4.55;;;;;;;23.64;52.14;100713.38;4921855;28;124583;-66
2021/07/31 10:53:21;;;;;;;5.90;4.68;;;;;;;23.72;51.91;100710.75;4921532;28;124094;-66
2021/07/31 10:55:48;;;;;;;7.22;4.60;;;;;;;23.75;51.55;100710.44;4922475;28;114984;-67
2021/07/31 10:58:20;;;;;;;5.78;4.40;;;;;;;23.74;51.27;100711.44;4946242;28;112832;-68
2021/07/31 11:00:55;;;;;;;5.38;4.05;;;;;;;23.71;50.95;100733.38;4922651;28;122993;-67
2021/07/31 11:03:23;;;;;;;5.88;3.67;;;;;;;23.63;50.81;100727.94;4945451;28;122927;-67
2021/07/31 11:05:51;;;;;;;5.75;3.80;;;;;;;23.54;50.81;100736.97;4927698;28;114646;-68
2021/07/31 11:08:20;;;;;;;5.40;3.10;;;;;;;23.44;50.81;100735.22;4929729;28;113742;-68
2021/07/31 11:10:54;;;;;;;4.80;3.33;;;;;;;23.33;50.99;100743.56;4922089;28;124012;-68
2021/07/31 11:13:22;;;;;;;4.90;3.70;;;;;;;23.27;51.17;100736.06;4923978;28;123642;-67
2021/07/31 11:16:04;;;;;;;5.28;3.85;;;;;;;23.27;52.04;100733.38;4921993;28;114059;-68
2021/07/31 11:18:35;;;;;;;4.47;3.85;;;;;;;23.35;52.04;100741.53;4921102;28;114291;-67
2021/07/31 11:21:20;;;;;;;5.65;3.70;;;;;;;23.45;51.89;100731.50;4924736;28;122941;-68
2021/07/31 11:23:55;;;;;;;;;;;;;;;23.56;52.17;100737.66;4918704;28;124297;-67
2021/07/31 11:26:51;;;;;;;4.30;3.17;;;;;;;23.72;52.17;100743.22;4927986;28;115722;-68
2021/07/31 11:29:24;;;;;;;3.90;3.42;;;;;;;23.92;51.98;100737.63;4924959;28;114899;-68